createdAt,value
2022-10-15T00:01:22.210Z,11.66
2022-10-15T00:04:24.031Z,11.56
2022-10-15T00:07:26.111Z,11.47
2022-10-15T00:10:28.302Z,11.54
2022-10-15T00:13:30.061Z,11.48
2022-10-15T00:16:35.390Z,11.36
2022-10-15T00:19:37.091Z,11.34
2022-10-15T00:22:39.289Z,11.42
2022-10-15T00:25:42.844Z,11.41
2022-10-15T00:28:44.726Z,11.42
2022-10-15T00:31:46.703Z,11.32
2022-10-15T00:34:48.729Z,11.36
2022-10-15T00:37:50.538Z,11.45
2022-10-15T00:40:52.973Z,11.33
2022-10-15T00:44:19.447Z,11.21
2022-10-15T00:47:29.097Z,11.17
2022-10-15T00:50:34.141Z,11.14
2022-10-15T00:53:36.680Z,11.12
2022-10-15T00:56:40.562Z,11.12
2022-10-15T00:59:51.192Z,11.10
2022-10-15T01:02:52.930Z,11.12
2022-10-15T01:05:55.458Z,11.06
2022-10-15T01:08:57.351Z,11.03
2022-10-15T01:11:59.214Z,11.05
2022-10-15T01:15:10.601Z,11.02
2022-10-15T01:18:16.033Z,10.97
2022-10-15T01:21:18.071Z,10.92
2022-10-15T01:24:37.597Z,10.91
2022-10-15T01:27:55.533Z,10.83
2022-10-15T01:31:04.635Z,10.80
2022-10-15T01:34:16.074Z,10.87
2022-10-15T01:37:32.604Z,10.90
2022-10-15T01:41:01.557Z,10.77
2022-10-15T01:44:09.214Z,10.49
2022-10-15T01:47:46.980Z,10.42
2022-10-15T01:50:52.237Z,10.41
2022-10-15T01:53:55.026Z,10.36
2022-10-15T01:56:58.549Z,10.24
2022-10-15T02:00:02.192Z,10.33
2022-10-15T02:03:14.515Z,10.30
2022-10-15T02:06:24.353Z,10.27
2022-10-15T02:09:32.684Z,10.39
2022-10-15T02:12:42.832Z,10.47
2022-10-15T02:16:13.312Z,10.53
2022-10-15T02:19:24.591Z,10.53
2022-10-15T02:22:45.379Z,10.57
2022-10-15T02:25:50.707Z,10.68
2022-10-15T02:28:55.214Z,10.72
2022-10-15T02:31:58.220Z,10.72
2022-10-15T02:35:00.890Z,10.81
2022-10-15T02:38:06.097Z,10.83
2022-10-15T02:41:09.740Z,10.82
2022-10-15T02:44:11.546Z,10.81
2022-10-15T02:47:13.503Z,10.82
2022-10-15T02:50:15.950Z,10.63
2022-10-15T02:53:17.750Z,10.41
2022-10-15T02:56:19.678Z,10.23
2022-10-15T02:59:22.505Z,10.08
2022-10-15T03:02:28.167Z,9.99
2022-10-15T03:05:30.165Z,9.91
2022-10-15T03:08:32.322Z,9.98
2022-10-15T03:11:38.822Z,9.85
2022-10-15T03:14:42.108Z,9.89
2022-10-15T03:17:44.083Z,10.03
2022-10-15T03:20:53.701Z,10.15
2022-10-15T03:23:55.749Z,10.12
2022-10-15T03:26:59.589Z,10.11
2022-10-15T03:30:01.616Z,10.11
2022-10-15T03:33:06.434Z,10.07
2022-10-15T03:36:09.945Z,10.14
2022-10-15T03:39:12.892Z,10.05
2022-10-15T03:42:15.145Z,10.02
2022-10-15T03:45:20.591Z,9.93
2022-10-15T03:48:28.150Z,9.95
2022-10-15T03:51:31.754Z,10.04
2022-10-15T03:54:41.662Z,10.06
2022-10-15T03:57:44.668Z,10.20
2022-10-15T04:00:47.016Z,10.27
2022-10-15T04:03:53.120Z,10.35
2022-10-15T04:06:59.655Z,10.28
2022-10-15T04:10:02.138Z,10.34
2022-10-15T04:13:12.976Z,10.31
2022-10-15T04:16:17.932Z,10.29
2022-10-15T04:19:20.155Z,10.36
2022-10-15T04:22:32.535Z,10.40
2022-10-15T04:25:37.621Z,10.48
2022-10-15T04:28:39.561Z,10.58
2022-10-15T04:31:42.072Z,10.65
2022-10-15T04:34:46.470Z,10.71
2022-10-15T04:37:50.098Z,10.76
2022-10-15T04:41:08.397Z,10.74
2022-10-15T04:44:25.455Z,10.88
2022-10-15T04:47:30.965Z,10.81
2022-10-15T04:50:48.321Z,10.87
2022-10-15T04:53:55.605Z,10.71
2022-10-15T04:56:57.551Z,10.67
2022-10-15T04:59:59.903Z,10.42
2022-10-15T05:03:07.959Z,10.29
2022-10-15T05:06:20.093Z,10.19
2022-10-15T05:09:22.775Z,10.08
2022-10-15T05:12:26.424Z,10.07
2022-10-15T05:15:29.447Z,10.17
2022-10-15T05:18:32.402Z,10.33
2022-10-15T05:21:36.411Z,10.45
2022-10-15T05:24:45.279Z,10.52
2022-10-15T05:27:59.780Z,10.53
2022-10-15T05:31:10.979Z,10.66
2022-10-15T05:34:14.714Z,10.71
2022-10-15T05:37:26.519Z,10.72
2022-10-15T05:40:28.831Z,10.73
2022-10-15T05:43:41.369Z,10.82
2022-10-15T05:46:51.775Z,10.83
2022-10-15T05:49:57.926Z,10.89
2022-10-15T05:53:05.061Z,10.94
2022-10-15T05:56:17.042Z,11.10
2022-10-15T05:59:19.215Z,11.06
2022-10-15T06:02:21.265Z,11.12
2022-10-15T06:05:23.497Z,11.21
2022-10-15T06:08:25.610Z,11.27
2022-10-15T06:11:27.862Z,11.39
2022-10-15T06:14:30.490Z,11.40
2022-10-15T06:17:32.420Z,11.46
2022-10-15T06:20:34.926Z,11.51
2022-10-15T06:23:37.097Z,11.57
2022-10-15T06:26:39.090Z,11.61
2022-10-15T06:29:41.809Z,11.74
2022-10-15T06:32:51.446Z,11.82
2022-10-15T06:35:53.674Z,11.81
2022-10-15T06:38:55.506Z,11.97
2022-10-15T06:41:57.580Z,11.98
2022-10-15T06:45:11.076Z,12.12
2022-10-15T06:48:13.159Z,12.09
2022-10-15T06:51:15.410Z,12.27
2022-10-15T06:54:25.546Z,12.37
2022-10-15T06:57:28.465Z,12.52
2022-10-15T07:00:30.411Z,12.45
2022-10-15T07:03:33.107Z,12.59
2022-10-15T07:06:35.666Z,12.69
2022-10-15T07:09:37.766Z,12.74
2022-10-15T07:12:39.683Z,12.79
2022-10-15T07:15:42.572Z,12.76
2022-10-15T07:18:45.434Z,12.91
2022-10-15T07:21:47.390Z,12.97
2022-10-15T07:24:50.516Z,12.96
2022-10-15T07:27:52.786Z,13.04
2022-10-15T07:30:54.914Z,12.99
2022-10-15T07:33:57.344Z,13.04
2022-10-15T07:36:59.170Z,13.22
2022-10-15T07:40:01.479Z,13.23
2022-10-15T07:43:03.714Z,13.24
2022-10-15T07:46:07.043Z,13.18
2022-10-15T07:49:10.308Z,13.35
2022-10-15T07:52:13.372Z,13.34
2022-10-15T07:55:15.848Z,13.26
2022-10-15T07:58:18.078Z,13.46
2022-10-15T08:01:21.245Z,13.34
2022-10-15T08:04:23.447Z,13.23
2022-10-15T08:07:25.701Z,13.26
2022-10-15T08:10:28.147Z,13.30
2022-10-15T08:13:30.521Z,13.49
2022-10-15T08:16:32.799Z,13.55
2022-10-15T08:19:35.196Z,13.48
2022-10-15T08:22:37.296Z,13.35
2022-10-15T08:25:39.950Z,13.39
2022-10-15T08:28:41.918Z,13.31
2022-10-15T08:31:44.710Z,13.40
2022-10-15T08:34:46.886Z,13.51
2022-10-15T08:37:48.841Z,13.62
2022-10-15T08:40:53.567Z,13.85
2022-10-15T08:43:55.847Z,13.98
2022-10-15T08:47:29.072Z,14.03
2022-10-15T08:50:40.748Z,14.13
2022-10-15T08:53:49.720Z,14.33
2022-10-15T08:56:55.625Z,14.54
2022-10-15T09:00:38.866Z,14.63
2022-10-15T09:03:47.169Z,14.75
2022-10-15T09:06:55.080Z,14.73
2022-10-15T09:10:23.951Z,15.11
2022-10-15T09:13:33.915Z,15.20
2022-10-15T09:16:39.755Z,15.40
2022-10-15T09:19:44.581Z,15.57
2022-10-15T09:22:51.521Z,15.67
2022-10-15T09:26:39.398Z,15.63
2022-10-15T09:29:41.706Z,15.86
2022-10-15T09:33:01.198Z,16.07
2022-10-15T09:36:18.472Z,16.00
2022-10-15T09:39:33.010Z,16.02
2022-10-15T09:42:38.841Z,16.36
2022-10-15T09:45:41.174Z,16.46
2022-10-15T09:49:22.789Z,16.61
2022-10-15T09:52:51.893Z,16.59
2022-10-15T09:56:03.808Z,16.78
2022-10-15T09:59:09.720Z,16.69
2022-10-15T10:02:20.300Z,16.73
2022-10-15T10:05:29.119Z,16.76
2022-10-15T10:08:38.647Z,16.68
2022-10-15T10:11:52.459Z,16.53
2022-10-15T10:14:58.591Z,16.54
2022-10-15T10:18:01.984Z,16.54
2022-10-15T10:21:22.211Z,16.58
2022-10-15T10:24:32.278Z,16.57
2022-10-15T10:27:34.448Z,16.54
2022-10-15T10:31:00.404Z,16.72
2022-10-15T10:34:03.309Z,16.90
2022-10-15T10:37:07.230Z,16.81
2022-10-15T10:40:38.823Z,16.63
2022-10-15T10:43:54.874Z,16.69
2022-10-15T10:47:07.118Z,16.50
2022-10-15T10:50:38.188Z,16.92
2022-10-15T10:53:59.474Z,16.76
2022-10-15T10:57:01.883Z,16.90
2022-10-15T11:00:06.499Z,16.89
2022-10-15T11:03:38.191Z,16.89
2022-10-15T11:06:55.650Z,16.77
2022-10-15T11:10:01.990Z,16.95
2022-10-15T11:13:27.600Z,16.87
2022-10-15T11:16:41.347Z,17.11
2022-10-15T11:20:46.254Z,17.12
2022-10-15T11:24:03.244Z,16.93
2022-10-15T11:27:20.749Z,16.96
2022-10-15T11:30:29.993Z,17.10
2022-10-15T11:34:03.047Z,17.00
2022-10-15T11:37:34.606Z,17.04
2022-10-15T11:40:48.770Z,16.79
2022-10-15T11:44:14.673Z,17.00
2022-10-15T11:47:29.325Z,17.00
2022-10-15T11:50:58.025Z,17.23
2022-10-15T11:54:21.094Z,17.20
2022-10-15T11:57:25.836Z,16.84
2022-10-15T12:00:41.420Z,16.60
2022-10-15T12:03:51.907Z,16.70
2022-10-15T12:06:56.423Z,16.72
2022-10-15T12:10:09.948Z,16.60
2022-10-15T12:13:27.198Z,16.68
2022-10-15T12:16:46.341Z,16.58
2022-10-15T12:19:55.290Z,16.71
2022-10-15T12:23:02.791Z,16.41
2022-10-15T12:26:32.601Z,16.25
2022-10-15T12:29:37.490Z,16.40
2022-10-15T12:32:43.355Z,16.42
2022-10-15T12:35:55.358Z,16.45
2022-10-15T12:39:07.790Z,16.39
2022-10-15T12:42:40.376Z,16.25
2022-10-15T12:45:51.649Z,16.26
2022-10-15T12:48:57.487Z,16.29
2022-10-15T12:52:02.130Z,16.41
2022-10-15T12:55:25.238Z,16.47
2022-10-15T12:58:33.789Z,16.42
2022-10-15T13:01:45.291Z,16.59
2022-10-15T13:04:48.803Z,16.73
2022-10-15T13:07:53.299Z,16.62
2022-10-15T13:10:57.982Z,16.51
2022-10-15T13:14:03.084Z,16.49
2022-10-15T13:17:24.043Z,16.33
2022-10-15T13:20:30.933Z,16.33
2022-10-15T13:23:33.731Z,16.23
2022-10-15T13:26:35.786Z,16.34
2022-10-15T13:29:38.647Z,16.39
2022-10-15T13:32:47.081Z,16.44
2022-10-15T13:35:49.365Z,16.53
2022-10-15T13:38:57.779Z,16.39
2022-10-15T13:42:17.146Z,16.50
2022-10-15T13:45:19.097Z,16.52
2022-10-15T13:48:23.541Z,16.34
2022-10-15T13:51:33.248Z,16.32
2022-10-15T13:54:36.666Z,16.19
2022-10-15T13:57:38.920Z,16.12
2022-10-15T14:00:42.770Z,16.24
2022-10-15T14:03:50.738Z,16.30
2022-10-15T14:07:02.577Z,16.29
2022-10-15T14:10:06.032Z,16.27
2022-10-15T14:13:10.703Z,16.26
2022-10-15T14:16:16.540Z,16.14
2022-10-15T14:19:21.557Z,16.13
2022-10-15T14:22:29.267Z,16.11
2022-10-15T14:25:32.331Z,15.86
2022-10-15T14:28:35.215Z,15.78
2022-10-15T14:31:39.822Z,15.98
2022-10-15T14:34:42.717Z,15.77
2022-10-15T14:37:44.830Z,15.62
2022-10-15T14:41:06.371Z,15.48
2022-10-15T14:44:13.295Z,15.54
2022-10-15T14:47:22.205Z,15.44
2022-10-15T14:50:33.863Z,15.49
2022-10-15T14:53:38.345Z,15.42
2022-10-15T14:56:42.769Z,15.39
2022-10-15T14:59:45.225Z,15.43
2022-10-15T15:02:49.390Z,15.47
2022-10-15T15:05:57.454Z,15.43
2022-10-15T15:08:59.591Z,15.26
2022-10-15T15:12:01.721Z,15.27
2022-10-15T15:15:19.232Z,15.23
2022-10-15T15:18:21.402Z,15.17
2022-10-15T15:21:24.275Z,15.23
2022-10-15T15:24:26.240Z,15.25
2022-10-15T15:27:37.303Z,15.17
2022-10-15T15:30:42.020Z,15.14
2022-10-15T15:33:44.523Z,15.21
2022-10-15T15:36:46.677Z,15.14
2022-10-15T15:39:49.326Z,15.17
2022-10-15T15:42:51.890Z,15.16
2022-10-15T15:45:54.480Z,15.17
2022-10-15T15:48:58.708Z,15.10
2022-10-15T15:52:00.974Z,15.11
2022-10-15T15:55:03.020Z,15.13
2022-10-15T15:58:05.033Z,15.11
2022-10-15T16:01:06.953Z,15.11
2022-10-15T16:04:08.936Z,15.07
2022-10-15T16:07:13.352Z,15.11
2022-10-15T16:10:15.901Z,14.92
2022-10-15T16:13:18.112Z,14.83
2022-10-15T16:16:19.980Z,14.84
2022-10-15T16:19:22.082Z,14.78
2022-10-15T16:22:23.965Z,14.88
2022-10-15T16:25:29.215Z,14.98
2022-10-15T16:28:32.193Z,14.94
2022-10-15T16:31:37.138Z,14.95
2022-10-15T16:34:39.075Z,15.00
2022-10-15T16:37:41.260Z,14.93
2022-10-15T16:40:47.442Z,14.95
2022-10-15T16:43:49.832Z,14.77
2022-10-15T16:46:51.827Z,14.87
2022-10-15T16:49:55.469Z,14.85
2022-10-15T16:52:57.654Z,14.86
2022-10-15T16:56:01.528Z,14.82
2022-10-15T16:59:03.683Z,14.79
2022-10-15T17:02:05.983Z,14.69
2022-10-15T17:05:08.794Z,14.85
2022-10-15T17:08:14.436Z,14.83
2022-10-15T17:11:22.339Z,14.81
2022-10-15T17:14:27.423Z,14.71
2022-10-15T17:17:29.707Z,14.52
2022-10-15T17:20:31.577Z,14.59
2022-10-15T17:23:33.628Z,14.66
2022-10-15T17:26:39.135Z,14.47
2022-10-15T17:29:41.368Z,14.57
2022-10-15T17:32:43.540Z,14.57
2022-10-15T17:35:45.552Z,14.62
2022-10-15T17:38:48.176Z,14.60
2022-10-15T17:41:51.973Z,14.57
2022-10-15T17:44:54.204Z,14.61
2022-10-15T17:47:56.241Z,14.69
2022-10-15T17:51:02.720Z,14.72
2022-10-15T17:54:05.107Z,14.62
2022-10-15T17:57:07.787Z,14.65
2022-10-15T18:00:11.577Z,14.61
2022-10-15T18:03:16.492Z,14.64
2022-10-15T18:06:21.870Z,14.55
2022-10-15T18:09:27.621Z,14.54
2022-10-15T18:12:32.664Z,14.52
2022-10-15T18:15:37.991Z,14.50
2022-10-15T18:18:41.120Z,14.49
2022-10-15T18:21:47.005Z,14.45
2022-10-15T18:24:51.917Z,14.39
2022-10-15T18:27:54.046Z,14.41
2022-10-15T18:30:56.040Z,14.39
2022-10-15T18:33:58.090Z,14.44
2022-10-15T18:37:00.776Z,14.42
2022-10-15T18:40:02.977Z,14.51
2022-10-15T18:43:05.826Z,14.50
2022-10-15T18:46:11.566Z,14.41
2022-10-15T18:49:16.247Z,14.47
2022-10-15T18:52:28.128Z,14.51
2022-10-15T18:55:40.552Z,14.57
2022-10-15T18:58:45.717Z,14.57
2022-10-15T19:01:49.587Z,14.48
2022-10-15T19:04:51.963Z,14.53
2022-10-15T19:07:55.755Z,14.43
2022-10-15T19:11:07.205Z,14.36
2022-10-15T19:14:09.695Z,14.37
2022-10-15T19:17:13.000Z,14.48
2022-10-15T19:20:15.505Z,14.55
2022-10-15T19:23:17.706Z,14.58
2022-10-15T19:26:19.933Z,14.60
2022-10-15T19:29:22.073Z,14.61
2022-10-15T19:32:27.208Z,14.60
2022-10-15T19:35:29.469Z,14.60
2022-10-15T19:38:32.409Z,14.55
2022-10-15T19:41:39.613Z,14.46
2022-10-15T19:44:41.952Z,14.47
2022-10-15T19:47:44.311Z,14.44
2022-10-15T19:50:47.435Z,14.52
2022-10-15T19:53:54.550Z,14.48
2022-10-15T19:56:57.019Z,14.44
2022-10-15T19:59:59.694Z,14.29
2022-10-15T20:03:02.196Z,14.01
2022-10-15T20:06:08.308Z,14.12
2022-10-15T20:09:10.687Z,14.16
2022-10-15T20:12:12.721Z,14.16
2022-10-15T20:15:16.182Z,14.16
2022-10-15T20:18:19.248Z,14.20
2022-10-15T20:21:21.476Z,14.19
2022-10-15T20:24:23.809Z,14.21
2022-10-15T20:27:27.913Z,14.23
2022-10-15T20:30:33.004Z,14.23
2022-10-15T20:33:38.597Z,14.11
2022-10-15T20:36:42.598Z,14.04
2022-10-15T20:39:45.198Z,14.13
2022-10-15T20:42:54.255Z,14.15
2022-10-15T20:46:00.420Z,14.22
2022-10-15T20:49:09.509Z,14.14
2022-10-15T20:52:11.949Z,14.13
2022-10-15T20:55:14.139Z,14.23
2022-10-15T21:01:23.559Z,14.14
2022-10-15T21:04:25.660Z,14.15
2022-10-15T21:07:31.321Z,14.18
2022-10-15T21:10:35.488Z,14.10
2022-10-15T21:13:37.540Z,14.10
2022-10-15T21:16:40.761Z,14.11
2022-10-15T21:19:42.842Z,14.07
2022-10-15T21:22:44.921Z,14.05
2022-10-15T21:25:46.980Z,14.00
2022-10-15T21:28:49.152Z,13.92
2022-10-15T21:31:52.744Z,13.94
2022-10-15T21:34:54.527Z,13.99
2022-10-15T21:37:59.811Z,14.00
2022-10-15T21:41:01.738Z,14.03
2022-10-15T21:44:07.606Z,14.07
2022-10-15T21:47:12.876Z,14.00
2022-10-15T21:50:17.210Z,14.00
2022-10-15T21:53:19.083Z,13.98
2022-10-15T21:56:21.650Z,14.00
2022-10-15T21:59:23.717Z,14.06
2022-10-15T22:02:25.828Z,13.93
2022-10-15T22:05:27.754Z,13.86
2022-10-15T22:08:29.953Z,13.87
2022-10-15T22:11:34.440Z,13.89
2022-10-15T22:14:36.394Z,13.79
2022-10-15T22:17:40.845Z,13.84
2022-10-15T22:20:42.612Z,13.82
2022-10-15T22:23:46.905Z,13.91
2022-10-15T22:26:51.282Z,13.87
2022-10-15T22:29:53.419Z,13.87
2022-10-15T22:32:55.123Z,13.86
2022-10-15T22:36:03.737Z,13.79
2022-10-15T22:39:06.763Z,13.84
2022-10-15T22:42:08.804Z,13.81
2022-10-15T22:45:10.690Z,13.76
2022-10-15T22:48:12.879Z,13.75
2022-10-15T22:51:16.036Z,13.76
2022-10-15T22:54:19.712Z,13.79
2022-10-15T22:57:21.384Z,13.86
2022-10-15T23:00:23.741Z,13.88
2022-10-15T23:03:25.404Z,13.87
2022-10-15T23:06:28.557Z,13.86
2022-10-15T23:09:30.269Z,13.82
2022-10-15T23:12:32.076Z,13.86
2022-10-15T23:15:34.166Z,13.82
2022-10-15T23:18:35.986Z,13.85
2022-10-15T23:21:45.114Z,13.90
2022-10-15T23:24:47.021Z,13.97
2022-10-15T23:27:49.288Z,13.89
2022-10-15T23:30:51.237Z,13.89
2022-10-15T23:33:54.912Z,13.90
2022-10-15T23:36:57.001Z,13.89
2022-10-15T23:39:59.006Z,13.93
2022-10-15T23:43:01.555Z,13.96
2022-10-15T23:46:04.149Z,13.93
2022-10-15T23:49:06.914Z,13.97
2022-10-15T23:52:09.001Z,14.02
2022-10-15T23:55:10.843Z,13.90
2022-10-15T23:58:13.027Z,13.84
